<?xml version="1.0" encoding="UTF-8" standalone="no" ?>
<gpx xmlns="http://www.topografix.com/GPX/1/1" xmlns:xsi="http://www.w3.org/2001/XMLSchema-instance" xsi:schemaLocation="http://www.topografix.com/GPX/1/1 http://www.topografix.com/GPX/1/1/gpx.xsd" version="1.1" creator="VisuGPX - https://www.visugpx.com">
  <metadata>
    <name>luzech 6 descentes</name>
    <desc><![CDATA[parcours typé enduro avec de belles descentes]]></desc>
  </metadata>
  <trk>
    <name><![CDATA[2014-04-01-08-18-57]]></name>
    <trkseg>
      <trkpt lat="44.46043" lon="1.29785">
        <ele>170.351</ele>
        <time>2014-04-01T09:33:46Z</time>
      </trkpt>
      <trkpt lat="44.46031" lon="1.29777">
        <ele>172.361</ele>
        <time>2014-04-01T09:33:54Z</time>
      </trkpt>
      <trkpt lat="44.46018" lon="1.29769">
        <ele>174.531</ele>
        <time>2014-04-01T09:34:03Z</time>
      </trkpt>
      <trkpt lat="44.46007" lon="1.29762">
        <ele>176.351</ele>
        <time>2014-04-01T09:34:11Z</time>
      </trkpt>
      <trkpt lat="44.45992" lon="1.29753">
        <ele>178.411</ele>
        <time>2014-04-01T09:34:21Z</time>
      </trkpt>
      <trkpt lat="44.45978" lon="1.29742">
        <ele>180.671</ele>
        <time>2014-04-01T09:34:32Z</time>
      </trkpt>
      <trkpt lat="44.45966" lon="1.2973">
        <ele>182.551</ele>
        <time>2014-04-01T09:34:42Z</time>
      </trkpt>
      <trkpt lat="44.45954" lon="1.29718">
        <ele>184.231</ele>
        <time>2014-04-01T09:34:52Z</time>
      </trkpt>
      <trkpt lat="44.45944" lon="1.29706">
        <ele>185.571</ele>
        <time>2014-04-01T09:35:01Z</time>
      </trkpt>
      <trkpt lat="44.45936" lon="1.29694">
        <ele>187.39</ele>
        <time>2014-04-01T09:35:09Z</time>
      </trkpt>
      <trkpt lat="44.45934" lon="1.29692">
        <ele>187.77</ele>
        <time>2014-04-01T09:35:11Z</time>
      </trkpt>
      <trkpt lat="44.45928" lon="1.29684">
        <ele>188.43</ele>
        <time>2014-04-01T09:35:17Z</time>
      </trkpt>
      <trkpt lat="44.45921" lon="1.29673">
        <ele>189.38</ele>
        <time>2014-04-01T09:35:25Z</time>
      </trkpt>
      <trkpt lat="44.45913" lon="1.29657">
        <ele>190.43</ele>
        <time>2014-04-01T09:35:35Z</time>
      </trkpt>
      <trkpt lat="44.45908" lon="1.29645">
        <ele>191.43</ele>
        <time>2014-04-01T09:35:42Z</time>
      </trkpt>
      <trkpt lat="44.45899" lon="1.29629">
        <ele>193.55</ele>
        <time>2014-04-01T09:35:52Z</time>
      </trkpt>
      <trkpt lat="44.45891" lon="1.29618">
        <ele>195.08</ele>
        <time>2014-04-01T09:36:00Z</time>
      </trkpt>
      <trkpt lat="44.45879" lon="1.29609">
        <ele>197.49</ele>
        <time>2014-04-01T09:36:09Z</time>
      </trkpt>
      <trkpt lat="44.4587" lon="1.29601">
        <ele>199.31</ele>
        <time>2014-04-01T09:36:17Z</time>
      </trkpt>
      <trkpt lat="44.45858" lon="1.29592">
        <ele>203.52</ele>
        <time>2014-04-01T09:36:27Z</time>
      </trkpt>
      <trkpt lat="44.45848" lon="1.2959">
        <ele>206.03</ele>
        <time>2014-04-01T09:36:34Z</time>
      </trkpt>
      <trkpt lat="44.45837" lon="1.29585">
        <ele>207.46</ele>
        <time>2014-04-01T09:36:42Z</time>
      </trkpt>
      <trkpt lat="44.45824" lon="1.29583">
        <ele>209.118</ele>
        <time>2014-04-01T09:36:50Z</time>
      </trkpt>
      <trkpt lat="44.45809" lon="1.29579">
        <ele>211.04</ele>
        <time>2014-04-01T09:37:00Z</time>
      </trkpt>
      <trkpt lat="44.45792" lon="1.29578">
        <ele>212.669</ele>
        <time>2014-04-01T09:37:10Z</time>
      </trkpt>
      <trkpt lat="44.45771" lon="1.29575">
        <ele>213.999</ele>
        <time>2014-04-01T09:37:21Z</time>
      </trkpt>
      <trkpt lat="44.45752" lon="1.2957">
        <ele>215.179</ele>
        <time>2014-04-01T09:37:31Z</time>
      </trkpt>
      <trkpt lat="44.45739" lon="1.29571">
        <ele>216.949</ele>
        <time>2014-04-01T09:37:38Z</time>
      </trkpt>
      <trkpt lat="44.45722" lon="1.29572">
        <ele>218.839</ele>
        <time>2014-04-01T09:37:47Z</time>
      </trkpt>
      <trkpt lat="44.45706" lon="1.29567">
        <ele>220.77</ele>
        <time>2014-04-01T09:37:57Z</time>
      </trkpt>
      <trkpt lat="44.45697" lon="1.29559">
        <ele>222.28</ele>
        <time>2014-04-01T09:38:04Z</time>
      </trkpt>
      <trkpt lat="44.45687" lon="1.29548">
        <ele>224.219</ele>
        <time>2014-04-01T09:38:13Z</time>
      </trkpt>
      <trkpt lat="44.45677" lon="1.29534">
        <ele>226.559</ele>
        <time>2014-04-01T09:38:24Z</time>
      </trkpt>
      <trkpt lat="44.4567" lon="1.29524">
        <ele>227.777</ele>
        <time>2014-04-01T09:38:32Z</time>
      </trkpt>
      <trkpt lat="44.45662" lon="1.29514">
        <ele>229.369</ele>
        <time>2014-04-01T09:38:41Z</time>
      </trkpt>
      <trkpt lat="44.45656" lon="1.29506">
        <ele>230.589</ele>
        <time>2014-04-01T09:38:49Z</time>
      </trkpt>
      <trkpt lat="44.45653" lon="1.29501">
        <ele>231.359</ele>
        <time>2014-04-01T09:38:53Z</time>
      </trkpt>
      <trkpt lat="44.4565" lon="1.29499">
        <ele>232.109</ele>
        <time>2014-04-01T09:38:56Z</time>
      </trkpt>
      <trkpt lat="44.45645" lon="1.29493">
        <ele>233.455</ele>
        <time>2014-04-01T09:39:02Z</time>
      </trkpt>
      <trkpt lat="44.45637" lon="1.29485">
        <ele>235.278</ele>
        <time>2014-04-01T09:39:11Z</time>
      </trkpt>
      <trkpt lat="44.4563" lon="1.2948">
        <ele>236.789</ele>
        <time>2014-04-01T09:39:18Z</time>
      </trkpt>
      <trkpt lat="44.45622" lon="1.29473">
        <ele>238.689</ele>
        <time>2014-04-01T09:39:26Z</time>
      </trkpt>
      <trkpt lat="44.45613" lon="1.29468">
        <ele>239.478</ele>
        <time>2014-04-01T09:39:34Z</time>
      </trkpt>
      <trkpt lat="44.45609" lon="1.29466">
        <ele>240.179</ele>
        <time>2014-04-01T09:39:38Z</time>
      </trkpt>
      <trkpt lat="44.45602" lon="1.29466">
        <ele>241.699</ele>
        <time>2014-04-01T09:39:44Z</time>
      </trkpt>
      <trkpt lat="44.456" lon="1.29467">
        <ele>242.208</ele>
        <time>2014-04-01T09:39:46Z</time>
      </trkpt>
      <trkpt lat="44.45598" lon="1.29467">
        <ele>242.879</ele>
        <time>2014-04-01T09:39:50Z</time>
      </trkpt>
    </trkseg>
  </trk>
</gpx>